Time;durP1;ratioP1;P1;durP2;ratioP2;P2;SDS_P1;SDS_P2;PMS_P1;PMS_P2;Temp;Humidity;BMP_temperature;BMP_pressure;BME280_temperature;BME280_humidity;BME280_pressure;Samples;Min_cycle;Max_cycle;Signal;HPM_P1;HPM_P2
2024/01/12 00:03:04;;;;;;;;;;;1.30;99.90;;;;;;8449237;28;20359;-72
2024/01/12 00:07:05;;;;;;;;;;;1.30;99.90;;;;;;8455501;28;19924;-72
2024/01/12 00:11:08;;;;;;;;;;;1.30;99.90;;;;;;8448256;28;19931;-72
2024/01/12 00:15:10;;;;;;;;;;;1.30;99.90;;;;;;8444585;28;19973;-72
2024/01/12 00:19:11;;;;;;;;;;;1.40;99.90;;;;;;8431087;28;20298;-72
2024/01/12 00:23:13;;;;;;;;;;;1.40;99.90;;;;;;8437375;28;19935;-72
2024/01/12 00:27:15;;;;;;;;;;;1.50;99.90;;;;;;8432394;28;19928;-72
2024/01/12 00:31:17;;;;;;;;;;;1.50;99.90;;;;;;8450039;28;19923;-71
2024/01/12 00:35:18;;;;;;;;;;;1.50;99.90;;;;;;8431717;28;19928;-72
2024/01/12 00:39:20;;;;;;;;;;;1.50;99.90;;;;;;8436047;28;19936;-72
2024/01/12 00:43:22;;;;;;;;;;;1.50;99.90;;;;;;8436491;28;19924;-72
2024/01/12 00:47:24;;;;;;;;;;;1.50;99.90;;;;;;8444543;28;19947;-72
2024/01/12 00:51:26;;;;;;;;;;;1.50;99.90;;;;;;8430263;28;19951;-72
2024/01/12 00:55:27;;;;;;;;;;;1.50;99.90;;;;;;8451718;28;19934;-72
2024/01/12 00:59:29;;;;;;;;;;;1.50;99.90;;;;;;8460841;27;20359;-72
2024/01/12 01:03:31;;;;;;;;;;;1.50;99.90;;;;;;8457020;28;19934;-72
2024/01/12 01:07:33;;;;;;;;;;;1.60;99.90;;;;;;8435504;28;19924;-72
2024/01/12 01:11:35;;;;;;;;;;;1.60;99.90;;;;;;8445367;28;19924;-72
2024/01/12 01:15:37;;;;;;;;;;;1.70;99.90;;;;;;8449837;28;20410;-72
2024/01/12 01:19:38;;;;;;;;;;;1.70;99.90;;;;;;8448768;28;19924;-72
2024/01/12 01:23:40;;;;;;;;;;;1.80;99.90;;;;;;8439076;28;20300;-72
2024/01/12 01:27:42;;;;;;;;;;;1.80;99.90;;;;;;8433469;28;19931;-71
2024/01/12 01:31:44;;;;;;;;;;;1.80;99.90;;;;;;8453265;28;19924;-72
2024/01/12 01:35:45;;;;;;;;;;;1.80;99.90;;;;;;8452489;28;19924;-72
2024/01/12 01:39:47;;;;;;;;;;;1.80;99.90;;;;;;8449195;28;20026;-72
2024/01/12 01:43:49;;;;;;;;;;;1.80;99.90;;;;;;8454835;28;19934;-72
2024/01/12 01:47:51;;;;;;;;;;;1.80;99.90;;;;;;8454723;28;20390;-72
2024/01/12 01:51:52;;;;;;;;;;;1.80;99.90;;;;;;8457718;28;19931;-72
2024/01/12 01:55:54;;;;;;;;;;;1.80;99.90;;;;;;8460438;28;20271;-72
2024/01/12 01:59:56;;;;;;;;;;;1.70;99.90;;;;;;8458731;28;20382;-72
2024/01/12 02:03:59;;;;;;;;;;;1.70;99.90;;;;;;8430107;28;19934;-72
2024/01/12 02:08:01;;;;;;;;;;;1.70;99.90;;;;;;8465547;27;19932;-72
2024/01/12 02:12:06;;;;;;;;;;;1.70;99.90;;;;;;8437059;28;20367;-72
2024/01/12 02:16:08;;;;;;;;;;;1.60;99.90;;;;;;8436449;28;19935;-72
2024/01/12 02:20:10;;;;;;;;;;;1.60;99.90;;;;;;8435371;28;20458;-72
2024/01/12 02:24:12;;;;;;;;;;;1.60;99.90;;;;;;8460492;28;19927;-72
2024/01/12 02:28:14;;;;;;;;;;;1.60;99.90;;;;;;8447346;28;19930;-72
2024/01/12 02:32:16;;;;;;;;;;;1.60;99.90;;;;;;8436655;28;19924;-72
2024/01/12 02:36:18;;;;;;;;;;;1.60;99.90;;;;;;8458609;28;19992;-72
2024/01/12 02:40:19;;;;;;;;;;;1.60;99.90;;;;;;8454669;28;19931;-72
2024/01/12 02:44:21;;;;;;;;;;;1.60;99.90;;;;;;8454710;28;20294;-72
2024/01/12 02:48:23;;;;;;;;;;;1.60;99.90;;;;;;8455958;28;19977;-72
2024/01/12 02:52:25;;;;;;;;;;;1.60;99.90;;;;;;8452920;28;19946;-72
2024/01/12 02:56:26;;;;;;;;;;;1.60;99.90;;;;;;8455603;28;19924;-72
2024/01/12 03:00:30;;;;;;;;;;;1.60;99.90;;;;;;8455118;28;19946;-72
2024/01/12 03:04:32;;;;;;;;;;;1.60;99.90;;;;;;8457942;28;20282;-72
2024/01/12 03:08:34;;;;;;;;;;;1.60;99.90;;;;;;8437380;28;19931;-72
2024/01/12 03:12:35;;;;;;;;;;;1.60;99.90;;;;;;8454647;28;19924;-72
2024/01/12 03:16:37;;;;;;;;;;;1.60;99.90;;;;;;8455897;28;19924;-72
2024/01/12 03:20:39;;;;;;;;;;;1.60;99.90;;;;;;8455079;27;20294;-72
2024/01/12 03:24:40;;;;;;;;;;;1.60;99.90;;;;;;8431659;28;19928;-72
2024/01/12 03:28:42;;;;;;;;;;;1.60;99.90;;;;;;8430821;28;19924;-72
2024/01/12 03:32:44;;;;;;;;;;;1.60;99.90;;;;;;8451281;28;19938;-72
2024/01/12 03:36:46;;;;;;;;;;;1.50;99.90;;;;;;8437319;28;19924;-72
2024/01/12 03:40:47;;;;;;;;;;;1.50;99.90;;;;;;8434972;28;19923;-72
2024/01/12 03:44:49;;;;;;;;;;;1.60;99.90;;;;;;8436962;28;19956;-72
2024/01/12 03:48:51;;;;;;;;;;;1.60;99.90;;;;;;8443359;28;19989;-72
2024/01/12 03:52:53;;;;;;;;;;;1.60;99.90;;;;;;8448917;28;19930;-72
2024/01/12 03:56:55;;;;;;;;;;;1.70;99.90;;;;;;8454833;28;19928;-72
2024/01/12 04:00:56;;;;;;;;;;;1.60;99.90;;;;;;8450703;28;19931;-72
2024/01/12 04:04:58;;;;;;;;;;;1.60;99.90;;;;;;8450556;28;19931;-72
2024/01/12 04:09:00;;;;;;;;;;;1.60;99.90;;;;;;8437706;28;19985;-72
2024/01/12 04:13:02;;;;;;;;;;;1.60;99.90;;;;;;8454106;28;19927;-72
2024/01/12 04:17:04;;;;;;;;;;;1.60;99.90;;;;;;8451608;27;19967;-72
2024/01/12 04:21:06;;;;;;;;;;;1.60;99.90;;;;;;8454072;28;20010;-72
2024/01/12 04:25:08;;;;;;;;;;;1.60;99.90;;;;;;8430214;28;19924;-72
2024/01/12 04:29:10;;;;;;;;;;;1.70;99.90;;;;;;8437891;28;19923;-72
2024/01/12 04:33:11;;;;;;;;;;;1.70;99.90;;;;;;8436112;28;19931;-72
2024/01/12 04:37:13;;;;;;;;;;;1.70;99.90;;;;;;8429336;28;19939;-72
2024/01/12 04:41:15;;;;;;;;;;;1.70;99.90;;;;;;8449413;28;19936;-71
2024/01/12 04:45:17;;;;;;;;;;;1.70;99.90;;;;;;8433389;28;19931;-72
2024/01/12 04:49:19;;;;;;;;;;;1.70;99.90;;;;;;8426118;28;19953;-72
2024/01/12 04:53:21;;;;;;;;;;;1.70;99.90;;;;;;8451455;28;19923;-72
2024/01/12 04:57:23;;;;;;;;;;;1.70;99.90;;;;;;8446603;28;19964;-72
2024/01/12 05:01:25;;;;;;;;;;;1.70;99.90;;;;;;8464130;28;19969;-72
2024/01/12 05:05:27;;;;;;;;;;;1.70;99.90;;;;;;8447546;28;19938;-72
2024/01/12 05:09:30;;;;;;;;;;;1.70;99.90;;;;;;8457573;28;19923;-72
2024/01/12 05:13:32;;;;;;;;;;;1.70;99.90;;;;;;8461488;28;19935;-72
2024/01/12 05:17:33;;;;;;;;;;;1.60;99.90;;;;;;8454517;28;20271;-72
2024/01/12 05:21:35;;;;;;;;;;;1.60;99.90;;;;;;8459715;28;20549;-72
2024/01/12 05:25:37;;;;;;;;;;;1.60;99.90;;;;;;8431264;28;19924;-72
2024/01/12 05:29:39;;;;;;;;;;;1.60;99.90;;;;;;8431610;28;19939;-72
2024/01/12 05:33:40;;;;;;;;;;;1.60;99.90;;;;;;8448960;27;19938;-72
2024/01/12 05:37:42;;;;;;;;;;;1.60;99.90;;;;;;8447893;27;20385;-72
2024/01/12 05:41:44;;;;;;;;;;;1.60;99.90;;;;;;8446820;28;19930;-72
2024/01/12 05:45:46;;;;;;;;;;;1.50;99.90;;;;;;8463597;27;19931;-72
2024/01/12 05:49:48;;;;;;;;;;;1.60;99.90;;;;;;8448847;28;19924;-72
2024/01/12 05:53:49;;;;;;;;;;;1.50;99.90;;;;;;8434276;28;19924;-72
2024/01/12 05:57:51;;;;;;;;;;;1.50;99.90;;;;;;8438696;28;19993;-72
2024/01/12 06:01:54;;;;;;;;;;;1.60;99.90;;;;;;8457027;28;19927;-73
2024/01/12 06:05:56;;;;;;;;;;;1.60;99.90;;;;;;8456372;28;20431;-72
2024/01/12 06:09:58;;;;;;;;;;;1.60;99.90;;;;;;8455107;27;19930;-72
2024/01/12 06:14:00;;;;;;;;;;;1.60;99.90;;;;;;8444970;28;20383;-72
2024/01/12 06:18:02;;;;;;;;;;;1.60;99.90;;;;;;8452146;28;20436;-72
2024/01/12 06:22:04;;;;;;;;;;;1.60;99.90;;;;;;8432836;28;19924;-72
2024/01/12 06:26:06;;;;;;;;;;;1.60;99.90;;;;;;8433654;28;19930;-73
2024/01/12 06:30:08;;;;;;;;;;;1.60;99.90;;;;;;8429294;27;19950;-73
2024/01/12 06:34:10;;;;;;;;;;;1.60;99.90;;;;;;8455787;28;19959;-73
2024/01/12 06:38:11;;;;;;;;;;;1.60;99.90;;;;;;8437129;28;19931;-72
2024/01/12 06:42:13;;;;;;;;;;;1.60;99.90;;;;;;8438890;28;19927;-72
2024/01/12 06:46:15;;;;;;;;;;;1.60;99.90;;;;;;8459503;28;19977;-72
2024/01/12 06:50:16;;;;;;;;;;;1.60;99.90;;;;;;8456810;27;20350;-73
2024/01/12 06:54:18;;;;;;;;;;;1.60;99.90;;;;;;8444585;28;20608;-72
2024/01/12 06:58:21;;;;;;;;;;;1.60;99.90;;;;;;8461535;28;19928;-72
2024/01/12 07:02:23;;;;;;;;;;;1.60;99.90;;;;;;8439501;28;19928;-72
2024/01/12 07:06:25;;;;;;;;;;;1.60;99.90;;;;;;8458415;28;20401;-72
2024/01/12 07:10:27;;;;;;;;;;;1.60;99.90;;;;;;8454410;28;20257;-73
2024/01/12 07:14:29;;;;;;;;;;;1.60;99.90;;;;;;8459750;28;19923;-72
2024/01/12 07:18:31;;;;;;;;;;;1.60;99.90;;;;;;8441871;28;20289;-72
2024/01/12 07:22:33;;;;;;;;;;;1.60;99.90;;;;;;8455422;28;20383;-73
2024/01/12 07:26:34;;;;;;;;;;;1.60;99.90;;;;;;8456943;28;20002;-73
2024/01/12 07:30:36;;;;;;;;;;;1.60;99.90;;;;;;8454028;28;19923;-73
2024/01/12 07:34:38;;;;;;;;;;;1.60;99.90;;;;;;8453665;28;19968;-73
2024/01/12 07:38:39;;;;;;;;;;;1.60;99.90;;;;;;8437256;28;20010;-73
2024/01/12 07:42:42;;;;;;;;;;;1.60;99.90;;;;;;8452161;28;19927;-72
2024/01/12 07:46:43;;;;;;;;;;;1.60;99.90;;;;;;8451603;28;19932;-72
2024/01/12 07:50:45;;;;;;;;;;;1.70;99.90;;;;;;8443908;28;19940;-72
2024/01/12 07:54:47;;;;;;;;;;;1.60;99.90;;;;;;8447823;28;19974;-73
2024/01/12 07:58:49;;;;;;;;;;;1.70;99.90;;;;;;8453533;28;19924;-73
2024/01/12 08:02:52;;;;;;;;;;;1.70;99.90;;;;;;8444201;28;19930;-73
2024/01/12 08:06:54;;;;;;;;;;;1.70;99.90;;;;;;8453550;28;19935;-73
2024/01/12 08:10:57;;;;;;;;;;;1.70;99.90;;;;;;8448493;28;19959;-72
2024/01/12 08:14:58;;;;;;;;;;;1.70;99.90;;;;;;8456129;28;20009;-73
2024/01/12 08:19:00;;;;;;;;;;;1.70;99.90;;;;;;8454211;28;19974;-73
2024/01/12 08:23:02;;;;;;;;;;;1.70;99.90;;;;;;8435611;28;19931;-73
2024/01/12 08:27:04;;;;;;;;;;;1.80;99.90;;;;;;8437295;28;19928;-73
2024/01/12 08:31:06;;;;;;;;;;;1.80;99.90;;;;;;8457126;28;20382;-73
2024/01/12 08:35:08;;;;;;;;;;;1.80;99.90;;;;;;8448159;28;19924;-73
2024/01/12 08:39:09;;;;;;;;;;;1.90;99.90;;;;;;8451251;28;20910;-73
2024/01/12 08:43:12;;;;;;;;;;;1.90;99.90;;;;;;8445355;28;19930;-73
2024/01/12 08:47:14;;;;;;;;;;;1.90;99.90;;;;;;8444198;28;20329;-73
2024/01/12 08:51:16;;;;;;;;;;;2.00;99.90;;;;;;8449198;28;19931;-73
2024/01/12 08:55:18;;;;;;;;;;;2.00;99.90;;;;;;8459247;28;19931;-73
2024/01/12 08:59:20;;;;;;;;;;;2.10;99.90;;;;;;8441894;28;19924;-73
2024/01/12 09:03:22;;;;;;;;;;;2.10;99.90;;;;;;8458733;28;19927;-73
2024/01/12 09:07:24;;;;;;;;;;;2.20;99.90;;;;;;8462376;28;19932;-73
2024/01/12 09:11:25;;;;;;;;;;;2.30;99.90;;;;;;8445912;28;19923;-73
2024/01/12 09:15:28;;;;;;;;;;;2.30;99.90;;;;;;8442632;28;20596;-73
2024/01/12 09:19:29;;;;;;;;;;;2.30;99.90;;;;;;8451796;27;20535;-74
2024/01/12 09:23:31;;;;;;;;;;;2.40;99.90;;;;;;8444052;28;19924;-73
2024/01/12 09:27:33;;;;;;;;;;;2.50;99.90;;;;;;8454707;28;19927;-73
2024/01/12 09:31:34;;;;;;;;;;;2.50;99.90;;;;;;8463268;28;20502;-73
2024/01/12 09:35:36;;;;;;;;;;;2.60;99.90;;;;;;8457499;28;20378;-73
2024/01/12 09:39:38;;;;;;;;;;;2.70;99.90;;;;;;8459443;28;20375;-74
2024/01/12 09:43:40;;;;;;;;;;;2.70;99.90;;;;;;8461364;28;19924;-74
2024/01/12 09:47:42;;;;;;;;;;;2.80;99.90;;;;;;8462715;28;20276;-74
2024/01/12 09:51:44;;;;;;;;;;;2.80;99.90;;;;;;8459232;28;19923;-74
2024/01/12 09:55:45;;;;;;;;;;;2.90;99.90;;;;;;8460189;28;19931;-74
2024/01/12 09:59:49;;;;;;;;;;;3.00;99.90;;;;;;8439874;28;20412;-73
2024/01/12 10:03:51;;;;;;;;;;;3.00;99.90;;;;;;8456336;28;19928;-74
2024/01/12 10:07:52;;;;;;;;;;;3.00;99.90;;;;;;8460171;28;19923;-74
2024/01/12 10:11:55;;;;;;;;;;;3.10;99.90;;;;;;8444141;28;19927;-74
2024/01/12 10:15:57;;;;;;;;;;;3.10;99.90;;;;;;8462256;28;20266;-74
2024/01/12 10:19:58;;;;;;;;;;;3.20;99.90;;;;;;8454889;28;19935;-73
2024/01/12 10:24:06;;;;;;;;;;;3.20;99.90;;;;;;8434520;28;20024;-74
2024/01/12 10:28:16;;;;;;;;;;;3.30;99.90;;;;;;8441723;28;19928;-73
2024/01/12 10:32:19;;;;;;;;;;;3.30;99.90;;;;;;8454610;28;19927;-74
2024/01/12 10:36:21;;;;;;;;;;;3.40;99.90;;;;;;8453068;28;19923;-74
2024/01/12 10:40:23;;;;;;;;;;;3.40;99.90;;;;;;8454476;28;19928;-73
2024/01/12 10:44:27;;;;;;;;;;;3.50;99.90;;;;;;8455527;28;19935;-74
2024/01/12 10:48:31;;;;;;;;;;;3.50;99.90;;;;;;8440028;28;19924;-73
2024/01/12 10:52:38;;;;;;;;;;;3.60;99.90;;;;;;8455042;28;19946;-74
2024/01/12 10:56:41;;;;;;;;;;;3.60;99.90;;;;;;8455479;27;19982;-74
2024/01/12 11:00:43;;;;;;;;;;;3.70;99.90;;;;;;8441350;28;20405;-74
2024/01/12 11:04:46;;;;;;;;;;;3.70;99.90;;;;;;8442633;28;19970;-74
2024/01/12 11:08:50;;;;;;;;;;;3.70;99.90;;;;;;8441643;28;20366;-73
2024/01/12 11:12:53;;;;;;;;;;;3.80;99.90;;;;;;8459600;28;19924;-74
2024/01/12 11:16:59;;;;;;;;;;;3.90;99.90;;;;;;8466024;27;19949;-74
2024/01/12 11:21:02;;;;;;;;;;;3.90;99.90;;;;;;8451186;28;19923;-73
2024/01/12 11:25:04;;;;;;;;;;;4.00;99.90;;;;;;8442444;28;19924;-74
2024/01/12 11:29:11;;;;;;;;;;;4.00;99.90;;;;;;8457876;27;19967;-74
2024/01/12 11:33:16;;;;;;;;;;;4.10;99.90;;;;;;8457838;28;19938;-74
2024/01/12 11:37:17;;;;;;;;;;;4.10;99.90;;;;;;8438595;28;19923;-74
2024/01/12 11:41:19;;;;;;;;;;;4.20;99.90;;;;;;8451042;28;19932;-74
2024/01/12 11:45:21;;;;;;;;;;;4.30;99.90;;;;;;8446302;28;19932;-74
2024/01/12 11:49:23;;;;;;;;;;;4.30;99.90;;;;;;8442284;28;19932;-73
2024/01/12 11:53:25;;;;;;;;;;;4.40;99.90;;;;;;8454682;28;20361;-74
2024/01/12 11:57:27;;;;;;;;;;;4.40;99.90;;;;;;8439081;28;19931;-74
2024/01/12 12:01:29;;;;;;;;;;;4.50;99.90;;;;;;8452096;28;19928;-73
2024/01/12 12:05:31;;;;;;;;;;;4.60;99.90;;;;;;8450810;28;19931;-74
2024/01/12 12:09:33;;;;;;;;;;;4.60;99.90;;;;;;8448898;28;19923;-74
2024/01/12 12:13:36;;;;;;;;;;;4.60;99.90;;;;;;8442905;28;20378;-74
2024/01/12 12:17:41;;;;;;;;;;;4.70;99.90;;;;;;8441233;28;19931;-74
2024/01/12 12:21:43;;;;;;;;;;;4.70;99.90;;;;;;8444091;28;19965;-73
2024/01/12 12:25:44;;;;;;;;;;;4.70;99.90;;;;;;8440065;28;19928;-74
2024/01/12 12:29:46;;;;;;;;;;;4.80;99.90;;;;;;8437638;28;19930;-74
2024/01/12 12:33:48;;;;;;;;;;;4.80;99.90;;;;;;8434962;28;19924;-74
2024/01/12 12:37:52;;;;;;;;;;;5.00;99.90;;;;;;8416623;28;21855;-74
2024/01/12 12:41:54;;;;;;;;;;;5.10;99.90;;;;;;8426845;28;19932;-74
2024/01/12 12:45:56;;;;;;;;;;;5.10;99.90;;;;;;8421886;28;19997;-74
2024/01/12 12:49:58;;;;;;;;;;;5.20;99.90;;;;;;8416468;28;19981;-74
2024/01/12 12:54:00;;;;;;;;;;;5.20;99.90;;;;;;8425954;28;19930;-74
2024/01/12 12:58:02;;;;;;;;;;;5.20;99.90;;;;;;8424392;28;20275;-74
2024/01/12 13:02:05;;;;;;;;;;;5.20;99.90;;;;;;8425074;28;19924;-74
2024/01/12 13:06:06;;;;;;;;;;;5.10;99.90;;;;;;8438652;28;19927;-74
2024/01/12 13:10:08;;;;;;;;;;;5.10;99.90;;;;;;8423905;28;19928;-74
2024/01/12 13:14:10;;;;;;;;;;;5.10;99.90;;;;;;8421961;28;20271;-74
2024/01/12 13:18:12;;;;;;;;;;;5.20;99.90;;;;;;8422845;28;20341;-74
2024/01/12 13:22:14;;;;;;;;;;;5.20;99.90;;;;;;8408028;28;19932;-74
2024/01/12 13:26:16;;;;;;;;;;;5.20;99.90;;;;;;8428045;28;19932;-74
2024/01/12 13:30:18;;;;;;;;;;;5.20;99.90;;;;;;8442205;28;19993;-74
2024/01/12 13:34:21;;;;;;;;;;;5.20;99.90;;;;;;8430913;27;19928;-74
2024/01/12 13:38:23;;;;;;;;;;;5.30;99.90;;;;;;8429547;28;19928;-74
2024/01/12 13:42:25;;;;;;;;;;;5.40;99.90;;;;;;8431444;28;20350;-74
2024/01/12 13:46:27;;;;;;;;;;;5.50;99.90;;;;;;8413237;28;19931;-74
2024/01/12 13:50:28;;;;;;;;;;;5.60;99.90;;;;;;8424684;28;19974;-74
2024/01/12 13:54:30;;;;;;;;;;;5.60;99.90;;;;;;8439190;27;19985;-74
2024/01/12 13:58:33;;;;;;;;;;;5.70;99.90;;;;;;8434814;28;19962;-74
2024/01/12 14:02:34;;;;;;;;;;;5.70;99.90;;;;;;8423062;28;20022;-74
2024/01/12 14:06:37;;;;;;;;;;;5.70;99.90;;;;;;8428738;28;19932;-74
2024/01/12 14:10:39;;;;;;;;;;;5.70;99.90;;;;;;8427665;28;19970;-74
2024/01/12 14:14:41;;;;;;;;;;;5.60;99.90;;;;;;8415047;28;20405;-74
2024/01/12 14:18:43;;;;;;;;;;;5.50;99.90;;;;;;8431296;28;19930;-74
2024/01/12 14:22:45;;;;;;;;;;;5.50;99.90;;;;;;8417313;27;19971;-74
2024/01/12 14:26:47;;;;;;;;;;;5.40;99.90;;;;;;8409964;28;19931;-74
2024/01/12 14:30:49;;;;;;;;;;;5.40;99.90;;;;;;8420086;28;19928;-74
2024/01/12 14:34:51;;;;;;;;;;;5.40;99.90;;;;;;8431226;28;19934;-74
2024/01/12 14:38:53;;;;;;;;;;;5.30;99.90;;;;;;8427392;27;19934;-74
2024/01/12 14:42:55;;;;;;;;;;;5.30;99.90;;;;;;8408996;28;20291;-74
2024/01/12 14:46:57;;;;;;;;;;;5.30;99.90;;;;;;8426570;28;19932;-74
2024/01/12 14:50:58;;;;;;;;;;;5.30;99.90;;;;;;8430041;28;19928;-74
2024/01/12 14:55:00;;;;;;;;;;;5.40;99.90;;;;;;8432121;27;20022;-74
2024/01/12 14:59:03;;;;;;;;;;;5.40;99.90;;;;;;8414233;27;19924;-73
2024/01/12 15:03:05;;;;;;;;;;;5.40;99.90;;;;;;8414069;28;19924;-74
2024/01/12 15:07:07;;;;;;;;;;;5.40;99.90;;;;;;8437573;27;20063;-74
2024/01/12 15:11:09;;;;;;;;;;;5.40;99.90;;;;;;8428345;28;19923;-74
2024/01/12 15:15:11;;;;;;;;;;;5.30;99.90;;;;;;8423735;28;20340;-74
2024/01/12 15:19:13;;;;;;;;;;;5.30;99.90;;;;;;8420262;28;20011;-74
2024/01/12 15:23:15;;;;;;;;;;;5.20;99.90;;;;;;8417699;28;19977;-74
2024/01/12 15:27:17;;;;;;;;;;;5.20;99.90;;;;;;8430943;28;20032;-73
2024/01/12 15:31:18;;;;;;;;;;;5.20;99.90;;;;;;8427738;28;19924;-74
2024/01/12 15:35:20;;;;;;;;;;;5.10;99.90;;;;;;8426128;28;19977;-73
2024/01/12 15:39:22;;;;;;;;;;;5.10;99.90;;;;;;8433844;27;19930;-74
2024/01/12 15:43:25;;;;;;;;;;;5.10;99.90;;;;;;8415950;28;19935;-74
2024/01/12 15:47:27;;;;;;;;;;;5.00;99.90;;;;;;8406809;28;19981;-74
2024/01/12 15:51:28;;;;;;;;;;;5.00;99.90;;;;;;8407580;28;19923;-74
2024/01/12 15:55:30;;;;;;;;;;;4.90;99.90;;;;;;8422158;28;19967;-74
2024/01/12 15:59:32;;;;;;;;;;;4.90;99.90;;;;;;8411870;28;19932;-74
2024/01/12 16:03:34;;;;;;;;;;;4.90;99.90;;;;;;8423996;28;19975;-73
2024/01/12 16:07:35;;;;;;;;;;;4.90;99.90;;;;;;8422923;28;19932;-74
2024/01/12 16:11:37;;;;;;;;;;;4.80;99.90;;;;;;8443673;27;19939;-74
2024/01/12 16:15:39;;;;;;;;;;;4.80;99.90;;;;;;8430262;28;19931;-73
2024/01/12 16:19:41;;;;;;;;;;;4.80;99.90;;;;;;8421954;28;19998;-74
2024/01/12 16:23:43;;;;;;;;;;;4.80;99.90;;;;;;8426938;28;20382;-74
2024/01/12 16:27:49;;;;;;;;;;;4.80;99.90;;;;;;8425494;28;19924;-73
2024/01/12 16:31:51;;;;;;;;;;;4.80;99.90;;;;;;8428001;28;19924;-73
2024/01/12 16:35:52;;;;;;;;;;;4.80;99.90;;;;;;8427413;28;19935;-74
2024/01/12 16:39:54;;;;;;;;;;;4.70;99.90;;;;;;8420918;28;19924;-74
2024/01/12 16:43:56;;;;;;;;;;;4.70;99.90;;;;;;8424217;28;22899;-74
2024/01/12 16:47:58;;;;;;;;;;;4.70;99.90;;;;;;8412211;28;19932;-74
2024/01/12 16:52:00;;;;;;;;;;;4.60;99.90;;;;;;8426887;28;19928;-74
2024/01/12 16:56:02;;;;;;;;;;;4.60;99.90;;;;;;8423711;28;20382;-73
2024/01/12 17:00:06;;;;;;;;;;;4.60;99.90;;;;;;8423317;28;19931;-74
2024/01/12 17:04:08;;;;;;;;;;;4.60;99.90;;;;;;8434184;27;19928;-74
2024/01/12 17:08:10;;;;;;;;;;;4.60;99.90;;;;;;8424968;28;19970;-74
2024/01/12 17:12:11;;;;;;;;;;;4.60;99.90;;;;;;8431352;28;19928;-73
2024/01/12 17:16:13;;;;;;;;;;;4.50;99.90;;;;;;8423048;28;20462;-73
2024/01/12 17:20:16;;;;;;;;;;;4.50;99.90;;;;;;8417844;27;20056;-74
2024/01/12 17:24:18;;;;;;;;;;;4.50;99.90;;;;;;8421991;28;19932;-73
2024/01/12 17:28:19;;;;;;;;;;;4.50;99.90;;;;;;8429094;27;19928;-73
2024/01/12 17:32:27;;;;;;;;;;;4.40;99.90;;;;;;8430886;28;19932;-73
2024/01/12 17:36:31;;;;;;;;;;;4.40;99.90;;;;;;8429398;28;19923;-74
2024/01/12 17:40:32;;;;;;;;;;;4.40;99.90;;;;;;8430708;28;20363;-74
2024/01/12 17:44:34;;;;;;;;;;;4.40;99.90;;;;;;8430840;28;19935;-73
2024/01/12 17:48:36;;;;;;;;;;;4.40;99.90;;;;;;8412796;28;19931;-73
2024/01/12 17:52:38;;;;;;;;;;;4.40;99.90;;;;;;8429118;28;19932;-74
2024/01/12 17:56:40;;;;;;;;;;;4.40;99.90;;;;;;8413634;28;20451;-74
2024/01/12 18:00:42;;;;;;;;;;;4.30;99.90;;;;;;8407337;28;20088;-73
2024/01/12 18:04:45;;;;;;;;;;;4.30;99.90;;;;;;8429316;27;19932;-74
2024/01/12 18:08:46;;;;;;;;;;;4.30;99.90;;;;;;8416465;28;20038;-73
2024/01/12 18:12:48;;;;;;;;;;;4.20;99.90;;;;;;8432760;28;19932;-74
2024/01/12 18:16:50;;;;;;;;;;;4.20;99.90;;;;;;8413556;28;19985;-73
2024/01/12 18:20:52;;;;;;;;;;;4.30;99.90;;;;;;8444714;27;19940;-73
2024/01/12 18:24:54;;;;;;;;;;;4.30;99.90;;;;;;8413217;28;19928;-74
2024/01/12 18:28:56;;;;;;;;;;;4.30;99.90;;;;;;8432615;28;20355;-73
2024/01/12 18:32:58;;;;;;;;;;;4.30;99.90;;;;;;8430901;27;20353;-74
2024/01/12 18:37:00;;;;;;;;;;;4.20;99.90;;;;;;8429433;27;19934;-74
2024/01/12 18:41:02;;;;;;;;;;;4.20;99.90;;;;;;8413337;28;19932;-73
2024/01/12 18:45:04;;;;;;;;;;;4.20;99.90;;;;;;8430910;27;19946;-73
2024/01/12 18:49:07;;;;;;;;;;;4.20;99.90;;;;;;8418900;27;19939;-73
2024/01/12 18:53:09;;;;;;;;;;;4.20;99.90;;;;;;8434018;28;19935;-74
2024/01/12 18:57:10;;;;;;;;;;;4.20;99.90;;;;;;8430956;28;19924;-74
2024/01/12 19:01:12;;;;;;;;;;;4.20;99.90;;;;;;8427606;28;19932;-73
2024/01/12 19:05:14;;;;;;;;;;;4.10;99.90;;;;;;8427837;28;19950;-74
2024/01/12 19:09:16;;;;;;;;;;;4.10;99.90;;;;;;8431774;27;19927;-73
2024/01/12 19:13:18;;;;;;;;;;;4.10;99.90;;;;;;8426383;28;19942;-74
2024/01/12 19:17:23;;;;;;;;;;;4.10;99.90;;;;;;8433556;28;20247;-74
2024/01/12 19:21:25;;;;;;;;;;;4.00;99.90;;;;;;8433840;28;19932;-73
2024/01/12 19:25:26;;;;;;;;;;;4.00;99.90;;;;;;8409725;28;19924;-73
2024/01/12 19:29:28;;;;;;;;;;;4.00;99.90;;;;;;8418808;28;19928;-73
2024/01/12 19:33:30;;;;;;;;;;;4.00;99.90;;;;;;8425755;28;20012;-73
2024/01/12 19:37:32;;;;;;;;;;;4.00;99.90;;;;;;8409875;27;20024;-73
2024/01/12 19:41:34;;;;;;;;;;;4.00;99.90;;;;;;8424121;28;20373;-73
2024/01/12 19:45:36;;;;;;;;;;;4.00;99.90;;;;;;8428636;28;19938;-73
2024/01/12 19:54:41;;;;;;;;;;;4.00;99.90;;;;;;8426806;28;19927;-73
2024/01/12 19:58:43;;;;;;;;;;;4.00;99.90;;;;;;8415225;28;19924;-74
2024/01/12 20:02:45;;;;;;;;;;;4.00;99.90;;;;;;8411548;28;19985;-73
2024/01/12 20:06:46;;;;;;;;;;;4.00;99.90;;;;;;8427161;28;19979;-73
2024/01/12 20:10:48;;;;;;;;;;;4.00;99.90;;;;;;8405262;28;19981;-74
2024/01/12 20:14:50;;;;;;;;;;;4.00;99.90;;;;;;8427109;28;20593;-74
2024/01/12 20:19:12;;;;;;;;;;;3.90;99.90;;;;;;8427591;28;19932;-73
2024/01/12 20:23:14;;;;;;;;;;;3.90;99.90;;;;;;8421301;28;19930;-73
2024/01/12 20:27:16;;;;;;;;;;;3.90;99.90;;;;;;8428822;28;20286;-74
2024/01/12 20:31:17;;;;;;;;;;;3.90;99.90;;;;;;8407470;28;19935;-73
2024/01/12 20:35:19;;;;;;;;;;;3.90;99.90;;;;;;8424261;28;20011;-73
2024/01/12 20:39:21;;;;;;;;;;;4.00;99.90;;;;;;8410420;28;20736;-73
2024/01/12 20:43:23;;;;;;;;;;;4.00;99.90;;;;;;8410335;28;19928;-73
2024/01/12 20:47:26;;;;;;;;;;;4.00;99.90;;;;;;8434984;28;19928;-73
2024/01/12 20:51:28;;;;;;;;;;;4.00;99.90;;;;;;8428333;28;19947;-74
2024/01/12 20:55:29;;;;;;;;;;;4.00;99.90;;;;;;8426290;28;19924;-73
2024/01/12 20:59:32;;;;;;;;;;;4.00;99.90;;;;;;8427249;28;19932;-74
2024/01/12 21:03:34;;;;;;;;;;;3.90;99.90;;;;;;8420705;28;19925;-73
2024/01/12 21:07:36;;;;;;;;;;;3.90;99.90;;;;;;8435832;28;19924;-73
2024/01/12 21:11:38;;;;;;;;;;;3.90;99.90;;;;;;8426596;28;19993;-73
2024/01/12 21:15:40;;;;;;;;;;;3.90;99.90;;;;;;8408530;28;19931;-73
2024/01/12 21:19:42;;;;;;;;;;;3.90;99.90;;;;;;8406085;28;19966;-73
2024/01/12 21:23:44;;;;;;;;;;;3.90;99.90;;;;;;8411632;28;20417;-73
2024/01/12 21:27:46;;;;;;;;;;;3.90;99.90;;;;;;8427612;28;19935;-74
2024/01/12 21:31:47;;;;;;;;;;;3.90;99.90;;;;;;8425325;28;20264;-73
2024/01/12 21:35:49;;;;;;;;;;;4.00;99.90;;;;;;8421770;28;19935;-74
2024/01/12 21:39:51;;;;;;;;;;;4.00;99.90;;;;;;8419284;28;19924;-73
2024/01/12 21:43:52;;;;;;;;;;;3.90;99.90;;;;;;8414659;28;19924;-73
2024/01/12 21:47:54;;;;;;;;;;;4.00;99.90;;;;;;8423268;28;19928;-73
2024/01/12 21:51:56;;;;;;;;;;;3.90;99.90;;;;;;8425200;27;19976;-74
2024/01/12 21:55:58;;;;;;;;;;;3.90;99.90;;;;;;8432196;28;20370;-73
2024/01/12 22:00:00;;;;;;;;;;;3.90;99.90;;;;;;8414012;27;19924;-74
2024/01/12 22:04:01;;;;;;;;;;;3.90;99.90;;;;;;8442515;28;19963;-74
2024/01/12 22:08:04;;;;;;;;;;;3.90;99.90;;;;;;8439976;28;20275;-74
2024/01/12 22:12:07;;;;;;;;;;;3.90;99.90;;;;;;8448763;27;19924;-73
2024/01/12 22:16:09;;;;;;;;;;;3.90;99.90;;;;;;8437169;28;20004;-74
2024/01/12 22:20:11;;;;;;;;;;;3.90;99.90;;;;;;8453122;28;19939;-73
2024/01/12 22:24:15;;;;;;;;;;;3.90;99.90;;;;;;8455451;28;19927;-74
2024/01/12 22:28:17;;;;;;;;;;;3.80;99.90;;;;;;8454189;28;20054;-73
2024/01/12 22:32:19;;;;;;;;;;;3.90;99.90;;;;;;8438395;27;20377;-74
2024/01/12 22:36:20;;;;;;;;;;;3.90;99.90;;;;;;8443733;28;19932;-73
2024/01/12 22:40:22;;;;;;;;;;;3.90;99.90;;;;;;8456079;28;19986;-74
2024/01/12 22:49:27;;;;;;;;;;;3.90;99.90;;;;;;8451526;28;19977;-74
2024/01/12 22:53:29;;;;;;;;;;;3.90;99.90;;;;;;8450109;28;19924;-73
2024/01/12 22:57:31;;;;;;;;;;;4.00;99.90;;;;;;8456889;28;19924;-73
2024/01/12 23:01:32;;;;;;;;;;;3.90;99.90;;;;;;8447563;27;19932;-74
2024/01/12 23:05:36;;;;;;;;;;;3.90;99.90;;;;;;8457108;28;19923;-74
2024/01/12 23:09:37;;;;;;;;;;;3.90;99.90;;;;;;8447962;28;19924;-73
2024/01/12 23:13:39;;;;;;;;;;;3.90;99.90;;;;;;8459359;27;20417;-73
2024/01/12 23:17:44;;;;;;;;;;;4.00;99.90;;;;;;8453918;28;19927;-73
2024/01/12 23:21:46;;;;;;;;;;;3.90;99.90;;;;;;8427034;28;20432;-73
2024/01/12 23:25:48;;;;;;;;;;;3.90;99.90;;;;;;8449269;28;19924;-73
2024/01/12 23:29:50;;;;;;;;;;;3.90;99.90;;;;;;8443254;28;20420;-73
2024/01/12 23:33:53;;;;;;;;;;;3.90;99.90;;;;;;8430951;28;19924;-74
2024/01/12 23:37:55;;;;;;;;;;;3.90;99.90;;;;;;8452369;28;19976;-74
2024/01/12 23:41:57;;;;;;;;;;;3.90;99.90;;;;;;8452404;28;19931;-73
2024/01/12 23:45:59;;;;;;;;;;;3.90;99.90;;;;;;8454461;28;19950;-73
2024/01/12 23:50:03;;;;;;;;;;;3.90;99.90;;;;;;8439560;28;20128;-73
2024/01/12 23:54:05;;;;;;;;;;;3.90;99.90;;;;;;8439438;28;19931;-73
2024/01/12 23:58:06;;;;;;;;;;;3.90;99.90;;;;;;8451035;28;19928;-73
